sensor_id;sensor_type;location;lat;lon;timestamp;P1;durP1;ratioP1;P2;durP2;ratioP2
16472;SDS011;8347;52.486;13.432;2022-12-18T00:00:19;45.47;;;16.07;;
16472;SDS011;8347;52.486;13.432;2022-12-18T00:03:05;34.70;;;14.43;;
16472;SDS011;8347;52.486;13.432;2022-12-18T00:05:52;43.03;;;15.80;;
16472;SDS011;8347;52.486;13.432;2022-12-18T00:08:39;34.07;;;14.70;;
16472;SDS011;8347;52.486;13.432;2022-12-18T00:11:28;34.73;;;15.70;;
16472;SDS011;8347;52.486;13.432;2022-12-18T00:14:14;42.10;;;18.00;;
16472;SDS011;8347;52.486;13.432;2022-12-18T00:17:01;41.27;;;17.23;;
16472;SDS011;8347;52.486;13.432;2022-12-18T00:19:48;41.23;;;14.87;;
16472;SDS011;8347;52.486;13.432;2022-12-18T00:22:34;35.13;;;13.57;;
16472;SDS011;8347;52.486;13.432;2022-12-18T00:25:21;32.97;;;14.33;;
16472;SDS011;8347;52.486;13.432;2022-12-18T00:28:07;29.03;;;12.80;;
16472;SDS011;8347;52.486;13.432;2022-12-18T00:31:01;38.53;;;15.70;;
16472;SDS011;8347;52.486;13.432;2022-12-18T00:33:48;35.43;;;14.20;;
16472;SDS011;8347;52.486;13.432;2022-12-18T00:36:35;28.20;;;14.17;;
16472;SDS011;8347;52.486;13.432;2022-12-18T00:39:21;37.87;;;15.03;;
16472;SDS011;8347;52.486;13.432;2022-12-18T00:42:09;40.37;;;16.27;;
16472;SDS011;8347;52.486;13.432;2022-12-18T00:45:15;32.93;;;14.17;;
16472;SDS011;8347;52.486;13.432;2022-12-18T00:48:01;49.37;;;16.40;;
16472;SDS011;8347;52.486;13.432;2022-12-18T00:50:48;41.23;;;15.73;;
16472;SDS011;8347;52.486;13.432;2022-12-18T00:53:35;36.57;;;14.90;;
16472;SDS011;8347;52.486;13.432;2022-12-18T00:56:21;38.40;;;14.23;;
16472;SDS011;8347;52.486;13.432;2022-12-18T00:59:08;37.90;;;15.17;;
16472;SDS011;8347;52.486;13.432;2022-12-18T01:01:54;37.50;;;15.73;;
16472;SDS011;8347;52.486;13.432;2022-12-18T01:04:41;35.43;;;14.33;;
16472;SDS011;8347;52.486;13.432;2022-12-18T01:07:27;36.17;;;13.93;;
16472;SDS011;8347;52.486;13.432;2022-12-18T01:10:14;30.47;;;13.00;;
16472;SDS011;8347;52.486;13.432;2022-12-18T01:13:01;32.10;;;12.80;;
16472;SDS011;8347;52.486;13.432;2022-12-18T01:15:48;29.07;;;12.67;;
16472;SDS011;8347;52.486;13.432;2022-12-18T01:18:36;40.03;;;15.63;;
16472;SDS011;8347;52.486;13.432;2022-12-18T01:21:23;35.20;;;13.43;;
16472;SDS011;8347;52.486;13.432;2022-12-18T01:24:10;27.80;;;14.47;;
16472;SDS011;8347;52.486;13.432;2022-12-18T01:26:57;38.30;;;13.90;;
16472;SDS011;8347;52.486;13.432;2022-12-18T01:29:44;35.77;;;14.53;;
16472;SDS011;8347;52.486;13.432;2022-12-18T01:32:31;35.20;;;15.17;;
16472;SDS011;8347;52.486;13.432;2022-12-18T01:35:17;36.07;;;13.83;;
16472;SDS011;8347;52.486;13.432;2022-12-18T01:38:05;38.70;;;14.97;;
16472;SDS011;8347;52.486;13.432;2022-12-18T01:40:56;46.83;;;15.27;;
16472;SDS011;8347;52.486;13.432;2022-12-18T01:43:44;36.23;;;15.07;;
16472;SDS011;8347;52.486;13.432;2022-12-18T01:46:31;40.70;;;15.77;;
16472;SDS011;8347;52.486;13.432;2022-12-18T01:49:18;41.20;;;16.73;;
16472;SDS011;8347;52.486;13.432;2022-12-18T01:52:05;40.17;;;17.43;;
16472;SDS011;8347;52.486;13.432;2022-12-18T01:54:51;58.97;;;20.80;;
16472;SDS011;8347;52.486;13.432;2022-12-18T01:57:39;51.10;;;17.60;;
16472;SDS011;8347;52.486;13.432;2022-12-18T02:00:27;55.03;;;19.00;;
16472;SDS011;8347;52.486;13.432;2022-12-18T02:03:13;60.50;;;18.90;;
16472;SDS011;8347;52.486;13.432;2022-12-18T02:06:11;56.33;;;18.90;;
16472;SDS011;8347;52.486;13.432;2022-12-18T02:09:06;48.57;;;18.77;;
16472;SDS011;8347;52.486;13.432;2022-12-18T02:15:05;55.40;;;18.10;;
16472;SDS011;8347;52.486;13.432;2022-12-18T02:18:03;52.83;;;19.50;;
16472;SDS011;8347;52.486;13.432;2022-12-18T02:20:57;48.57;;;18.30;;
16472;SDS011;8347;52.486;13.432;2022-12-18T02:26:40;58.40;;;19.20;;
16472;SDS011;8347;52.486;13.432;2022-12-18T02:29:31;64.10;;;22.43;;
16472;SDS011;8347;52.486;13.432;2022-12-18T02:32:27;63.00;;;20.10;;
16472;SDS011;8347;52.486;13.432;2022-12-18T02:35:15;72.40;;;22.73;;
16472;SDS011;8347;52.486;13.432;2022-12-18T02:38:03;53.80;;;19.43;;
16472;SDS011;8347;52.486;13.432;2022-12-18T02:40:54;61.70;;;20.73;;
16472;SDS011;8347;52.486;13.432;2022-12-18T02:43:45;61.10;;;21.80;;
16472;SDS011;8347;52.486;13.432;2022-12-18T02:46:34;65.67;;;22.27;;
16472;SDS011;8347;52.486;13.432;2022-12-18T02:58:53;67.33;;;21.83;;
16472;SDS011;8347;52.486;13.432;2022-12-18T03:04:45;57.23;;;21.93;;
16472;SDS011;8347;52.486;13.432;2022-12-18T03:07:42;58.90;;;20.93;;
16472;SDS011;8347;52.486;13.432;2022-12-18T03:10:32;69.00;;;22.07;;
16472;SDS011;8347;52.486;13.432;2022-12-18T03:13:25;57.80;;;19.00;;
16472;SDS011;8347;52.486;13.432;2022-12-18T03:16:21;60.83;;;21.80;;
16472;SDS011;8347;52.486;13.432;2022-12-18T03:19:10;62.90;;;20.80;;
16472;SDS011;8347;52.486;13.432;2022-12-18T03:21:58;65.93;;;20.47;;
16472;SDS011;8347;52.486;13.432;2022-12-18T03:24:53;53.37;;;18.27;;
16472;SDS011;8347;52.486;13.432;2022-12-18T03:27:42;54.13;;;18.23;;
16472;SDS011;8347;52.486;13.432;2022-12-18T03:30:32;48.50;;;19.23;;
16472;SDS011;8347;52.486;13.432;2022-12-18T03:33:23;38.40;;;16.33;;
16472;SDS011;8347;52.486;13.432;2022-12-18T03:36:14;44.97;;;15.83;;
16472;SDS011;8347;52.486;13.432;2022-12-18T03:39:00;47.77;;;17.53;;
16472;SDS011;8347;52.486;13.432;2022-12-18T03:45:06;49.73;;;17.27;;
16472;SDS011;8347;52.486;13.432;2022-12-18T03:47:58;44.13;;;17.13;;
16472;SDS011;8347;52.486;13.432;2022-12-18T03:53:51;53.67;;;17.03;;
16472;SDS011;8347;52.486;13.432;2022-12-18T03:56:59;49.50;;;17.57;;
16472;SDS011;8347;52.486;13.432;2022-12-18T03:59:51;43.87;;;16.13;;
16472;SDS011;8347;52.486;13.432;2022-12-18T04:02:46;42.80;;;16.27;;
16472;SDS011;8347;52.486;13.432;2022-12-18T04:05:42;48.57;;;15.47;;
16472;SDS011;8347;52.486;13.432;2022-12-18T04:08:29;37.40;;;13.87;;
16472;SDS011;8347;52.486;13.432;2022-12-18T04:11:22;37.97;;;14.20;;
16472;SDS011;8347;52.486;13.432;2022-12-18T04:14:08;32.40;;;14.03;;
16472;SDS011;8347;52.486;13.432;2022-12-18T04:16:56;41.10;;;15.87;;
16472;SDS011;8347;52.486;13.432;2022-12-18T04:19:49;36.77;;;13.67;;
16472;SDS011;8347;52.486;13.432;2022-12-18T04:22:36;36.13;;;14.50;;
16472;SDS011;8347;52.486;13.432;2022-12-18T04:25:22;41.17;;;17.90;;
16472;SDS011;8347;52.486;13.432;2022-12-18T04:28:23;42.17;;;15.00;;
16472;SDS011;8347;52.486;13.432;2022-12-18T04:31:11;43.03;;;14.53;;
16472;SDS011;8347;52.486;13.432;2022-12-18T04:33:58;38.60;;;13.50;;
16472;SDS011;8347;52.486;13.432;2022-12-18T04:36:45;37.90;;;14.87;;
16472;SDS011;8347;52.486;13.432;2022-12-18T04:39:33;29.60;;;13.03;;
16472;SDS011;8347;52.486;13.432;2022-12-18T04:42:25;34.40;;;13.73;;
16472;SDS011;8347;52.486;13.432;2022-12-18T04:45:12;36.87;;;14.37;;
16472;SDS011;8347;52.486;13.432;2022-12-18T04:47:59;36.10;;;13.03;;
16472;SDS011;8347;52.486;13.432;2022-12-18T04:50:46;33.60;;;13.83;;
16472;SDS011;8347;52.486;13.432;2022-12-18T04:53:33;34.27;;;14.80;;
16472;SDS011;8347;52.486;13.432;2022-12-18T04:56:19;30.73;;;12.67;;
16472;SDS011;8347;52.486;13.432;2022-12-18T04:59:06;33.07;;;12.27;;
16472;SDS011;8347;52.486;13.432;2022-12-18T05:01:53;30.97;;;13.20;;
16472;SDS011;8347;52.486;13.432;2022-12-18T05:04:39;31.40;;;13.13;;
16472;SDS011;8347;52.486;13.432;2022-12-18T05:07:26;37.10;;;13.70;;
16472;SDS011;8347;52.486;13.432;2022-12-18T05:10:12;38.73;;;13.63;;
16472;SDS011;8347;52.486;13.432;2022-12-18T05:12:59;36.67;;;13.73;;
16472;SDS011;8347;52.486;13.432;2022-12-18T05:15:51;28.90;;;12.40;;
16472;SDS011;8347;52.486;13.432;2022-12-18T05:18:38;40.37;;;14.20;;
16472;SDS011;8347;52.486;13.432;2022-12-18T05:21:24;39.80;;;13.20;;
16472;SDS011;8347;52.486;13.432;2022-12-18T05:24:11;40.37;;;13.80;;
16472;SDS011;8347;52.486;13.432;2022-12-18T05:26:57;41.23;;;13.53;;
16472;SDS011;8347;52.486;13.432;2022-12-18T05:29:44;36.90;;;13.63;;
16472;SDS011;8347;52.486;13.432;2022-12-18T05:32:30;37.80;;;14.80;;
16472;SDS011;8347;52.486;13.432;2022-12-18T05:35:16;39.83;;;14.90;;
16472;SDS011;8347;52.486;13.432;2022-12-18T05:38:03;41.43;;;13.90;;
16472;SDS011;8347;52.486;13.432;2022-12-18T05:40:51;49.77;;;16.47;;
16472;SDS011;8347;52.486;13.432;2022-12-18T05:43:38;46.10;;;15.03;;
16472;SDS011;8347;52.486;13.432;2022-12-18T05:46:25;39.97;;;15.50;;
16472;SDS011;8347;52.486;13.432;2022-12-18T05:49:12;44.30;;;16.60;;
16472;SDS011;8347;52.486;13.432;2022-12-18T05:51:59;48.57;;;15.37;;
16472;SDS011;8347;52.486;13.432;2022-12-18T05:54:45;44.40;;;15.87;;
16472;SDS011;8347;52.486;13.432;2022-12-18T05:57:32;46.00;;;16.60;;
16472;SDS011;8347;52.486;13.432;2022-12-18T06:00:19;46.93;;;17.03;;
16472;SDS011;8347;52.486;13.432;2022-12-18T06:03:09;50.43;;;16.60;;
16472;SDS011;8347;52.486;13.432;2022-12-18T06:05:55;43.53;;;16.07;;
16472;SDS011;8347;52.486;13.432;2022-12-18T06:08:42;50.50;;;18.03;;
16472;SDS011;8347;52.486;13.432;2022-12-18T06:11:29;43.13;;;17.17;;
16472;SDS011;8347;52.486;13.432;2022-12-18T06:14:16;48.03;;;14.03;;
16472;SDS011;8347;52.486;13.432;2022-12-18T06:17:03;42.47;;;14.73;;
16472;SDS011;8347;52.486;13.432;2022-12-18T06:19:49;40.53;;;16.57;;
16472;SDS011;8347;52.486;13.432;2022-12-18T06:22:36;47.50;;;17.60;;
16472;SDS011;8347;52.486;13.432;2022-12-18T06:25:22;50.63;;;17.13;;
16472;SDS011;8347;52.486;13.432;2022-12-18T06:28:09;41.20;;;16.17;;
16472;SDS011;8347;52.486;13.432;2022-12-18T06:30:56;41.33;;;15.83;;
16472;SDS011;8347;52.486;13.432;2022-12-18T06:33:43;57.60;;;17.77;;
16472;SDS011;8347;52.486;13.432;2022-12-18T06:36:29;42.47;;;16.47;;
16472;SDS011;8347;52.486;13.432;2022-12-18T06:39:16;47.60;;;16.83;;
16472;SDS011;8347;52.486;13.432;2022-12-18T06:42:03;42.23;;;16.33;;
16472;SDS011;8347;52.486;13.432;2022-12-18T06:44:49;42.63;;;14.87;;
16472;SDS011;8347;52.486;13.432;2022-12-18T06:47:36;40.07;;;16.30;;
16472;SDS011;8347;52.486;13.432;2022-12-18T06:50:22;40.73;;;15.47;;
16472;SDS011;8347;52.486;13.432;2022-12-18T06:53:09;51.07;;;16.07;;
16472;SDS011;8347;52.486;13.432;2022-12-18T06:56:06;43.30;;;15.67;;
16472;SDS011;8347;52.486;13.432;2022-12-18T06:58:52;45.00;;;16.57;;
16472;SDS011;8347;52.486;13.432;2022-12-18T07:01:39;43.67;;;16.70;;
16472;SDS011;8347;52.486;13.432;2022-12-18T07:04:29;36.97;;;16.40;;
16472;SDS011;8347;52.486;13.432;2022-12-18T07:07:16;42.73;;;14.87;;
16472;SDS011;8347;52.486;13.432;2022-12-18T07:10:02;49.60;;;18.27;;
16472;SDS011;8347;52.486;13.432;2022-12-18T07:12:49;44.37;;;18.50;;
16472;SDS011;8347;52.486;13.432;2022-12-18T07:15:35;48.40;;;17.40;;
16472;SDS011;8347;52.486;13.432;2022-12-18T07:18:22;44.17;;;15.53;;
16472;SDS011;8347;52.486;13.432;2022-12-18T07:21:10;48.17;;;16.53;;
16472;SDS011;8347;52.486;13.432;2022-12-18T07:23:57;48.70;;;15.57;;
16472;SDS011;8347;52.486;13.432;2022-12-18T07:26:47;42.17;;;14.83;;
16472;SDS011;8347;52.486;13.432;2022-12-18T07:29:34;46.23;;;15.93;;
16472;SDS011;8347;52.486;13.432;2022-12-18T07:32:21;41.97;;;15.70;;
16472;SDS011;8347;52.486;13.432;2022-12-18T07:35:07;49.97;;;17.23;;
16472;SDS011;8347;52.486;13.432;2022-12-18T07:37:54;45.87;;;16.30;;
16472;SDS011;8347;52.486;13.432;2022-12-18T07:40:40;42.73;;;15.13;;
16472;SDS011;8347;52.486;13.432;2022-12-18T07:43:27;40.03;;;14.33;;
16472;SDS011;8347;52.486;13.432;2022-12-18T07:46:14;44.30;;;14.77;;
16472;SDS011;8347;52.486;13.432;2022-12-18T07:49:01;50.27;;;16.30;;
16472;SDS011;8347;52.486;13.432;2022-12-18T07:51:47;52.93;;;16.77;;
16472;SDS011;8347;52.486;13.432;2022-12-18T07:54:34;54.50;;;16.87;;
16472;SDS011;8347;52.486;13.432;2022-12-18T07:57:21;37.57;;;14.47;;
16472;SDS011;8347;52.486;13.432;2022-12-18T08:00:07;36.83;;;15.20;;
16472;SDS011;8347;52.486;13.432;2022-12-18T08:02:58;49.97;;;16.87;;
16472;SDS011;8347;52.486;13.432;2022-12-18T08:05:44;37.23;;;15.30;;
16472;SDS011;8347;52.486;13.432;2022-12-18T08:08:31;47.33;;;15.97;;
16472;SDS011;8347;52.486;13.432;2022-12-18T08:11:17;37.23;;;14.70;;
16472;SDS011;8347;52.486;13.432;2022-12-18T08:14:04;41.33;;;15.03;;
16472;SDS011;8347;52.486;13.432;2022-12-18T08:16:51;39.23;;;15.07;;
16472;SDS011;8347;52.486;13.432;2022-12-18T08:19:38;39.43;;;15.33;;
16472;SDS011;8347;52.486;13.432;2022-12-18T08:22:25;40.67;;;14.23;;
16472;SDS011;8347;52.486;13.432;2022-12-18T08:25:12;41.33;;;14.93;;
16472;SDS011;8347;52.486;13.432;2022-12-18T08:27:58;35.80;;;14.67;;
16472;SDS011;8347;52.486;13.432;2022-12-18T08:30:45;43.33;;;15.43;;
16472;SDS011;8347;52.486;13.432;2022-12-18T08:33:32;39.97;;;13.90;;
16472;SDS011;8347;52.486;13.432;2022-12-18T08:36:18;39.17;;;15.93;;
16472;SDS011;8347;52.486;13.432;2022-12-18T08:39:05;37.40;;;15.37;;
16472;SDS011;8347;52.486;13.432;2022-12-18T08:41:52;39.37;;;15.90;;
16472;SDS011;8347;52.486;13.432;2022-12-18T08:44:57;44.97;;;15.53;;
16472;SDS011;8347;52.486;13.432;2022-12-18T08:47:43;37.53;;;15.37;;
16472;SDS011;8347;52.486;13.432;2022-12-18T08:50:30;31.07;;;11.67;;
16472;SDS011;8347;52.486;13.432;2022-12-18T08:53:16;42.60;;;15.63;;
16472;SDS011;8347;52.486;13.432;2022-12-18T08:56:03;46.33;;;16.93;;
16472;SDS011;8347;52.486;13.432;2022-12-18T08:58:53;37.93;;;14.90;;
16472;SDS011;8347;52.486;13.432;2022-12-18T09:01:40;36.77;;;14.07;;
16472;SDS011;8347;52.486;13.432;2022-12-18T09:04:27;39.53;;;15.50;;
16472;SDS011;8347;52.486;13.432;2022-12-18T09:07:13;38.47;;;13.37;;
16472;SDS011;8347;52.486;13.432;2022-12-18T09:10:00;35.07;;;13.23;;
16472;SDS011;8347;52.486;13.432;2022-12-18T09:12:46;39.30;;;14.40;;
16472;SDS011;8347;52.486;13.432;2022-12-18T09:15:33;39.80;;;14.70;;
16472;SDS011;8347;52.486;13.432;2022-12-18T09:18:20;37.43;;;16.83;;
16472;SDS011;8347;52.486;13.432;2022-12-18T09:21:07;30.17;;;13.00;;
16472;SDS011;8347;52.486;13.432;2022-12-18T09:23:55;42.10;;;15.23;;
16472;SDS011;8347;52.486;13.432;2022-12-18T09:26:42;39.30;;;15.50;;
16472;SDS011;8347;52.486;13.432;2022-12-18T09:29:29;42.20;;;14.67;;
16472;SDS011;8347;52.486;13.432;2022-12-18T09:32:15;36.37;;;14.83;;
16472;SDS011;8347;52.486;13.432;2022-12-18T09:35:02;38.23;;;14.60;;
16472;SDS011;8347;52.486;13.432;2022-12-18T09:37:48;44.00;;;16.37;;
16472;SDS011;8347;52.486;13.432;2022-12-18T09:40:36;39.57;;;14.80;;
16472;SDS011;8347;52.486;13.432;2022-12-18T09:43:42;40.87;;;15.47;;
16472;SDS011;8347;52.486;13.432;2022-12-18T09:46:35;37.87;;;15.13;;
16472;SDS011;8347;52.486;13.432;2022-12-18T09:49:25;39.37;;;13.60;;
16472;SDS011;8347;52.486;13.432;2022-12-18T09:52:34;44.97;;;17.33;;
16472;SDS011;8347;52.486;13.432;2022-12-18T09:55:36;41.27;;;15.10;;
16472;SDS011;8347;52.486;13.432;2022-12-18T09:58:31;43.70;;;13.97;;
16472;SDS011;8347;52.486;13.432;2022-12-18T10:01:20;44.07;;;16.47;;
16472;SDS011;8347;52.486;13.432;2022-12-18T10:04:08;44.47;;;16.57;;
16472;SDS011;8347;52.486;13.432;2022-12-18T10:07:09;37.97;;;15.07;;
16472;SDS011;8347;52.486;13.432;2022-12-18T10:10:19;35.80;;;14.80;;
16472;SDS011;8347;52.486;13.432;2022-12-18T10:13:58;46.97;;;16.57;;
16472;SDS011;8347;52.486;13.432;2022-12-18T10:16:28;44.17;;;16.47;;
16472;SDS011;8347;52.486;13.432;2022-12-18T10:19:22;40.23;;;14.87;;
16472;SDS011;8347;52.486;13.432;2022-12-18T10:28:47;44.90;;;15.63;;
16472;SDS011;8347;52.486;13.432;2022-12-18T10:31:33;47.60;;;16.23;;
16472;SDS011;8347;52.486;13.432;2022-12-18T10:34:20;46.57;;;15.83;;
16472;SDS011;8347;52.486;13.432;2022-12-18T10:37:09;47.40;;;16.33;;
16472;SDS011;8347;52.486;13.432;2022-12-18T10:43:04;44.13;;;14.87;;
16472;SDS011;8347;52.486;13.432;2022-12-18T10:51:37;39.87;;;16.83;;
16472;SDS011;8347;52.486;13.432;2022-12-18T10:54:24;46.93;;;16.57;;
16472;SDS011;8347;52.486;13.432;2022-12-18T10:57:16;45.93;;;17.03;;
16472;SDS011;8347;52.486;13.432;2022-12-18T11:06:19;38.17;;;15.80;;
16472;SDS011;8347;52.486;13.432;2022-12-18T11:09:20;40.50;;;15.30;;
16472;SDS011;8347;52.486;13.432;2022-12-18T11:12:17;42.90;;;17.03;;
16472;SDS011;8347;52.486;13.432;2022-12-18T11:15:04;31.13;;;13.40;;
16472;SDS011;8347;52.486;13.432;2022-12-18T11:17:52;43.20;;;14.93;;
16472;SDS011;8347;52.486;13.432;2022-12-18T11:20:39;37.83;;;16.53;;
16472;SDS011;8347;52.486;13.432;2022-12-18T11:23:25;38.97;;;14.73;;
16472;SDS011;8347;52.486;13.432;2022-12-18T11:26:12;36.53;;;15.27;;
16472;SDS011;8347;52.486;13.432;2022-12-18T11:29:09;41.77;;;16.40;;
16472;SDS011;8347;52.486;13.432;2022-12-18T11:35:17;34.90;;;15.50;;
16472;SDS011;8347;52.486;13.432;2022-12-18T11:38:16;35.13;;;16.13;;
16472;SDS011;8347;52.486;13.432;2022-12-18T11:41:23;38.80;;;14.27;;
16472;SDS011;8347;52.486;13.432;2022-12-18T11:44:53;30.43;;;13.87;;
16472;SDS011;8347;52.486;13.432;2022-12-18T11:47:58;36.40;;;13.57;;
16472;SDS011;8347;52.486;13.432;2022-12-18T11:50:58;32.03;;;12.57;;
16472;SDS011;8347;52.486;13.432;2022-12-18T11:53:47;32.17;;;13.50;;
16472;SDS011;8347;52.486;13.432;2022-12-18T11:56:38;32.83;;;13.53;;
16472;SDS011;8347;52.486;13.432;2022-12-18T12:05:20;31.70;;;12.13;;
16472;SDS011;8347;52.486;13.432;2022-12-18T12:08:12;27.60;;;11.23;;
16472;SDS011;8347;52.486;13.432;2022-12-18T12:11:28;31.17;;;13.40;;
16472;SDS011;8347;52.486;13.432;2022-12-18T12:14:32;37.43;;;14.47;;
16472;SDS011;8347;52.486;13.432;2022-12-18T12:17:27;30.97;;;12.70;;
16472;SDS011;8347;52.486;13.432;2022-12-18T12:20:26;36.27;;;13.17;;
16472;SDS011;8347;52.486;13.432;2022-12-18T12:26:25;31.50;;;13.80;;
16472;SDS011;8347;52.486;13.432;2022-12-18T12:35:25;36.20;;;14.43;;
16472;SDS011;8347;52.486;13.432;2022-12-18T12:38:44;24.83;;;12.77;;
16472;SDS011;8347;52.486;13.432;2022-12-18T12:41:35;34.53;;;12.10;;
16472;SDS011;8347;52.486;13.432;2022-12-18T12:44:43;29.37;;;13.33;;
16472;SDS011;8347;52.486;13.432;2022-12-18T12:47:33;31.97;;;13.77;;
16472;SDS011;8347;52.486;13.432;2022-12-18T12:50:22;35.87;;;14.13;;
16472;SDS011;8347;52.486;13.432;2022-12-18T12:53:09;30.03;;;13.93;;
16472;SDS011;8347;52.486;13.432;2022-12-18T12:56:01;29.87;;;12.73;;
16472;SDS011;8347;52.486;13.432;2022-12-18T13:01:37;30.77;;;13.23;;
16472;SDS011;8347;52.486;13.432;2022-12-18T13:04:39;29.53;;;12.63;;
16472;SDS011;8347;52.486;13.432;2022-12-18T13:07:41;35.50;;;14.60;;
16472;SDS011;8347;52.486;13.432;2022-12-18T13:10:38;28.97;;;12.70;;
16472;SDS011;8347;52.486;13.432;2022-12-18T13:13:27;32.77;;;13.33;;
16472;SDS011;8347;52.486;13.432;2022-12-18T13:16:39;29.63;;;13.53;;
16472;SDS011;8347;52.486;13.432;2022-12-18T13:19:25;33.67;;;14.83;;
16472;SDS011;8347;52.486;13.432;2022-12-18T13:22:22;38.67;;;14.07;;
16472;SDS011;8347;52.486;13.432;2022-12-18T13:34:26;32.13;;;14.83;;
16472;SDS011;8347;52.486;13.432;2022-12-18T13:37:35;31.20;;;14.07;;
16472;SDS011;8347;52.486;13.432;2022-12-18T13:43:28;35.20;;;15.07;;
16472;SDS011;8347;52.486;13.432;2022-12-18T13:46:20;29.77;;;13.63;;
16472;SDS011;8347;52.486;13.432;2022-12-18T13:52:00;31.13;;;14.00;;
16472;SDS011;8347;52.486;13.432;2022-12-18T13:54:56;27.17;;;15.00;;
16472;SDS011;8347;52.486;13.432;2022-12-18T13:57:44;30.73;;;13.50;;
16472;SDS011;8347;52.486;13.432;2022-12-18T14:00:32;29.33;;;14.63;;
16472;SDS011;8347;52.486;13.432;2022-12-18T14:03:23;34.57;;;16.10;;
16472;SDS011;8347;52.486;13.432;2022-12-18T14:06:11;36.57;;;16.13;;
16472;SDS011;8347;52.486;13.432;2022-12-18T14:08:59;38.40;;;16.87;;
16472;SDS011;8347;52.486;13.432;2022-12-18T14:11:49;33.80;;;17.37;;
16472;SDS011;8347;52.486;13.432;2022-12-18T14:14:36;34.70;;;16.87;;
16472;SDS011;8347;52.486;13.432;2022-12-18T14:17:22;41.83;;;18.67;;
16472;SDS011;8347;52.486;13.432;2022-12-18T14:20:13;45.03;;;20.03;;
16472;SDS011;8347;52.486;13.432;2022-12-18T14:23:01;44.00;;;18.30;;
16472;SDS011;8347;52.486;13.432;2022-12-18T14:25:48;44.07;;;17.87;;
16472;SDS011;8347;52.486;13.432;2022-12-18T14:28:42;32.80;;;14.20;;
16472;SDS011;8347;52.486;13.432;2022-12-18T14:31:30;32.07;;;15.57;;
16472;SDS011;8347;52.486;13.432;2022-12-18T14:34:17;34.63;;;15.53;;
16472;SDS011;8347;52.486;13.432;2022-12-18T14:37:05;31.10;;;15.90;;
16472;SDS011;8347;52.486;13.432;2022-12-18T14:39:59;33.57;;;16.03;;
16472;SDS011;8347;52.486;13.432;2022-12-18T14:42:48;30.77;;;14.93;;
16472;SDS011;8347;52.486;13.432;2022-12-18T14:45:39;36.20;;;16.07;;
16472;SDS011;8347;52.486;13.432;2022-12-18T14:48:39;31.10;;;14.43;;
16472;SDS011;8347;52.486;13.432;2022-12-18T14:51:27;30.27;;;14.87;;
16472;SDS011;8347;52.486;13.432;2022-12-18T14:54:15;33.27;;;15.10;;
16472;SDS011;8347;52.486;13.432;2022-12-18T14:59:49;30.73;;;13.67;;
16472;SDS011;8347;52.486;13.432;2022-12-18T15:02:36;33.03;;;15.57;;
16472;SDS011;8347;52.486;13.432;2022-12-18T15:05:29;28.83;;;13.83;;
16472;SDS011;8347;52.486;13.432;2022-12-18T15:08:35;39.97;;;19.63;;
16472;SDS011;8347;52.486;13.432;2022-12-18T15:11:32;28.63;;;16.43;;
16472;SDS011;8347;52.486;13.432;2022-12-18T15:17:20;28.60;;;14.07;;
16472;SDS011;8347;52.486;13.432;2022-12-18T15:20:09;28.97;;;13.17;;
16472;SDS011;8347;52.486;13.432;2022-12-18T15:22:57;32.20;;;14.67;;
16472;SDS011;8347;52.486;13.432;2022-12-18T15:25:44;26.67;;;12.87;;
16472;SDS011;8347;52.486;13.432;2022-12-18T15:28:39;28.57;;;13.13;;
16472;SDS011;8347;52.486;13.432;2022-12-18T15:31:34;23.93;;;13.50;;
16472;SDS011;8347;52.486;13.432;2022-12-18T15:34:21;35.63;;;16.30;;
16472;SDS011;8347;52.486;13.432;2022-12-18T15:37:08;31.27;;;16.77;;
16472;SDS011;8347;52.486;13.432;2022-12-18T15:39:54;33.43;;;16.00;;
16472;SDS011;8347;52.486;13.432;2022-12-18T15:42:41;31.53;;;15.97;;
16472;SDS011;8347;52.486;13.432;2022-12-18T15:45:47;31.37;;;13.70;;
16472;SDS011;8347;52.486;13.432;2022-12-18T15:48:34;26.23;;;14.33;;
16472;SDS011;8347;52.486;13.432;2022-12-18T15:54:10;29.17;;;13.40;;
16472;SDS011;8347;52.486;13.432;2022-12-18T15:56:58;32.60;;;14.03;;
16472;SDS011;8347;52.486;13.432;2022-12-18T16:00:04;29.63;;;14.97;;
16472;SDS011;8347;52.486;13.432;2022-12-18T16:02:50;30.77;;;14.90;;
16472;SDS011;8347;52.486;13.432;2022-12-18T16:05:37;29.47;;;13.93;;
16472;SDS011;8347;52.486;13.432;2022-12-18T16:08:23;31.90;;;14.17;;
16472;SDS011;8347;52.486;13.432;2022-12-18T16:11:17;33.23;;;14.77;;
16472;SDS011;8347;52.486;13.432;2022-12-18T16:14:24;25.73;;;13.93;;
16472;SDS011;8347;52.486;13.432;2022-12-18T16:17:14;35.73;;;13.90;;
16472;SDS011;8347;52.486;13.432;2022-12-18T16:20:00;28.67;;;14.60;;
16472;SDS011;8347;52.486;13.432;2022-12-18T16:22:48;32.73;;;14.43;;
16472;SDS011;8347;52.486;13.432;2022-12-18T16:25:34;34.03;;;15.30;;
16472;SDS011;8347;52.486;13.432;2022-12-18T16:28:21;28.27;;;14.60;;
16472;SDS011;8347;52.486;13.432;2022-12-18T16:31:08;30.03;;;15.77;;
16472;SDS011;8347;52.486;13.432;2022-12-18T16:34:11;32.07;;;16.60;;
16472;SDS011;8347;52.486;13.432;2022-12-18T16:37:00;31.53;;;15.50;;
16472;SDS011;8347;52.486;13.432;2022-12-18T16:39:47;30.13;;;16.27;;
16472;SDS011;8347;52.486;13.432;2022-12-18T16:42:34;33.10;;;16.00;;
16472;SDS011;8347;52.486;13.432;2022-12-18T16:45:21;29.70;;;15.23;;
16472;SDS011;8347;52.486;13.432;2022-12-18T16:48:08;34.50;;;13.93;;
16472;SDS011;8347;52.486;13.432;2022-12-18T16:51:02;26.00;;;13.27;;
16472;SDS011;8347;52.486;13.432;2022-12-18T16:53:49;29.70;;;14.40;;
16472;SDS011;8347;52.486;13.432;2022-12-18T16:56:35;28.80;;;13.73;;
16472;SDS011;8347;52.486;13.432;2022-12-18T16:59:22;29.03;;;14.20;;
16472;SDS011;8347;52.486;13.432;2022-12-18T17:02:12;27.17;;;13.60;;
16472;SDS011;8347;52.486;13.432;2022-12-18T17:05:00;24.47;;;14.07;;
16472;SDS011;8347;52.486;13.432;2022-12-18T17:07:46;32.50;;;15.30;;
16472;SDS011;8347;52.486;13.432;2022-12-18T17:10:36;34.13;;;14.60;;
16472;SDS011;8347;52.486;13.432;2022-12-18T17:13:22;24.40;;;13.60;;
16472;SDS011;8347;52.486;13.432;2022-12-18T17:16:10;31.33;;;13.77;;
16472;SDS011;8347;52.486;13.432;2022-12-18T17:18:57;38.50;;;14.70;;
16472;SDS011;8347;52.486;13.432;2022-12-18T17:21:44;27.07;;;13.43;;
16472;SDS011;8347;52.486;13.432;2022-12-18T17:24:32;33.77;;;14.90;;
16472;SDS011;8347;52.486;13.432;2022-12-18T17:27:19;34.03;;;15.07;;
16472;SDS011;8347;52.486;13.432;2022-12-18T17:30:06;38.47;;;17.20;;
16472;SDS011;8347;52.486;13.432;2022-12-18T17:32:53;31.50;;;14.37;;
16472;SDS011;8347;52.486;13.432;2022-12-18T17:35:40;36.20;;;16.47;;
16472;SDS011;8347;52.486;13.432;2022-12-18T17:38:28;30.77;;;14.90;;
16472;SDS011;8347;52.486;13.432;2022-12-18T17:41:15;27.73;;;14.03;;
16472;SDS011;8347;52.486;13.432;2022-12-18T17:44:03;36.10;;;14.63;;
16472;SDS011;8347;52.486;13.432;2022-12-18T17:46:50;36.03;;;16.77;;
16472;SDS011;8347;52.486;13.432;2022-12-18T17:49:36;36.00;;;16.57;;
16472;SDS011;8347;52.486;13.432;2022-12-18T17:52:23;32.97;;;15.53;;
16472;SDS011;8347;52.486;13.432;2022-12-18T17:55:10;35.67;;;16.47;;
16472;SDS011;8347;52.486;13.432;2022-12-18T17:57:56;33.23;;;14.43;;
16472;SDS011;8347;52.486;13.432;2022-12-18T18:00:44;36.03;;;15.30;;
16472;SDS011;8347;52.486;13.432;2022-12-18T18:03:31;34.13;;;15.13;;